createdAt,value
2022-12-06T00:00:14.489Z,4.66
2022-12-06T00:02:46.505Z,4.68
2022-12-06T00:05:18.468Z,4.72
2022-12-06T00:07:50.465Z,4.74
2022-12-06T00:10:22.418Z,4.79
2022-12-06T00:12:54.395Z,4.80
2022-12-06T00:15:26.343Z,4.85
2022-12-06T00:17:58.356Z,4.85
2022-12-06T00:20:30.320Z,4.90
2022-12-06T00:23:02.320Z,4.94
2022-12-06T00:25:36.092Z,4.93
2022-12-06T00:28:08.065Z,4.98
2022-12-06T00:30:40.017Z,4.98
2022-12-06T00:33:11.943Z,5.01
2022-12-06T00:35:43.842Z,5.02
2022-12-06T00:38:15.786Z,5.05
2022-12-06T00:40:47.734Z,5.10
2022-12-06T00:43:19.663Z,5.12
2022-12-06T00:45:51.762Z,5.15
2022-12-06T00:48:23.900Z,5.10
2022-12-06T00:50:56.136Z,5.15
2022-12-06T00:53:28.674Z,5.18
2022-12-06T00:56:00.613Z,5.19
2022-12-06T00:58:32.603Z,5.22
2022-12-06T01:01:27.441Z,5.28
2022-12-06T01:04:03.290Z,5.33
2022-12-06T01:06:38.007Z,5.33
2022-12-06T01:09:11.193Z,5.36
2022-12-06T01:11:43.170Z,5.37
2022-12-06T01:14:15.143Z,5.40
2022-12-06T01:16:47.148Z,5.37
2022-12-06T01:19:19.128Z,5.41
2022-12-06T01:21:51.044Z,5.41
2022-12-06T01:24:22.975Z,5.31
2022-12-06T01:26:54.991Z,5.35
2022-12-06T01:29:26.955Z,5.40
2022-12-06T01:31:58.998Z,5.44
2022-12-06T01:34:30.927Z,5.42
2022-12-06T01:37:02.956Z,5.46
2022-12-06T01:39:34.973Z,5.47
2022-12-06T01:42:06.925Z,5.48
2022-12-06T01:44:40.802Z,5.51
2022-12-06T01:47:37.750Z,5.50
2022-12-06T01:50:32.813Z,5.41
2022-12-06T01:53:09.000Z,5.44
2022-12-06T01:55:41.526Z,5.41
2022-12-06T01:58:23.968Z,5.44
2022-12-06T02:00:56.091Z,5.45
2022-12-06T02:03:31.828Z,5.46
2022-12-06T02:06:09.203Z,5.41
2022-12-06T02:08:41.574Z,5.44
2022-12-06T02:11:13.942Z,5.43
2022-12-06T02:13:46.364Z,5.47
2022-12-06T02:16:54.675Z,5.46
2022-12-06T02:20:04.467Z,5.52
2022-12-06T02:23:00.573Z,5.51
2022-12-06T02:26:13.312Z,5.52
2022-12-06T02:29:45.321Z,5.48
2022-12-06T02:32:34.297Z,5.48
2022-12-06T02:35:31.721Z,5.41
2022-12-06T02:38:13.490Z,5.45
2022-12-06T02:40:57.035Z,5.46
2022-12-06T02:43:48.055Z,5.44
2022-12-06T02:46:22.826Z,5.47
2022-12-06T02:48:57.163Z,5.47
2022-12-06T02:51:32.984Z,5.52
2022-12-06T02:54:08.401Z,5.53
2022-12-06T02:56:40.319Z,5.53
2022-12-06T02:59:12.276Z,5.52
2022-12-06T03:02:00.825Z,5.48
2022-12-06T03:05:14.214Z,5.45
2022-12-06T03:07:47.152Z,5.49
2022-12-06T03:10:46.566Z,5.52
2022-12-06T03:13:34.941Z,5.52
2022-12-06T03:16:42.521Z,5.47
2022-12-06T03:19:21.816Z,5.52
2022-12-06T03:22:24.747Z,5.54
2022-12-06T03:24:59.116Z,5.55
2022-12-06T03:27:31.975Z,5.52
2022-12-06T03:30:16.487Z,5.51
2022-12-06T03:32:50.992Z,5.55
2022-12-06T03:35:29.163Z,5.53
2022-12-06T03:38:19.778Z,5.53
2022-12-06T03:40:54.282Z,5.51
2022-12-06T03:43:26.343Z,5.47
2022-12-06T03:46:10.797Z,5.48
2022-12-06T03:48:52.970Z,5.48
2022-12-06T03:51:29.745Z,5.47
2022-12-06T03:54:06.582Z,5.49
2022-12-06T03:56:39.588Z,5.46
2022-12-06T03:59:12.158Z,5.50
2022-12-06T04:01:44.620Z,5.36
2022-12-06T04:04:16.720Z,5.37
2022-12-06T04:06:48.704Z,5.38
2022-12-06T04:09:38.976Z,5.47
2022-12-06T04:12:29.177Z,5.50
2022-12-06T04:15:01.082Z,5.53
2022-12-06T04:17:51.978Z,5.43
2022-12-06T04:20:25.004Z,5.49
2022-12-06T04:23:06.290Z,5.55
2022-12-06T04:25:38.244Z,5.55
2022-12-06T04:28:29.073Z,5.54
2022-12-06T04:31:22.239Z,5.51
2022-12-06T04:34:12.876Z,5.54
2022-12-06T04:37:03.935Z,5.57
2022-12-06T04:39:36.281Z,5.59
2022-12-06T04:42:27.119Z,5.57
2022-12-06T04:44:59.158Z,5.54
2022-12-06T04:47:31.268Z,5.56
2022-12-06T04:50:03.874Z,5.55
2022-12-06T04:52:36.453Z,5.49
2022-12-06T04:55:09.162Z,5.47
2022-12-06T04:57:41.069Z,5.39
2022-12-06T05:00:13.801Z,5.40
2022-12-06T05:02:45.771Z,5.45
2022-12-06T05:05:17.697Z,5.46
2022-12-06T05:07:49.859Z,5.48
2022-12-06T05:10:21.958Z,5.50
2022-12-06T05:12:53.887Z,5.50
2022-12-06T05:15:29.164Z,5.53
2022-12-06T05:18:01.433Z,5.54
2022-12-06T05:20:33.373Z,5.50
2022-12-06T05:23:05.272Z,5.53
2022-12-06T05:25:37.296Z,5.50
2022-12-06T05:28:09.672Z,5.44
2022-12-06T05:30:41.751Z,5.39
2022-12-06T05:33:13.653Z,5.46
2022-12-06T05:35:45.690Z,5.48
2022-12-06T05:38:18.411Z,5.49
2022-12-06T05:40:50.443Z,5.43
2022-12-06T05:43:22.389Z,5.39
2022-12-06T05:45:54.434Z,5.33
2022-12-06T05:48:26.623Z,5.41
2022-12-06T05:50:58.805Z,5.41
2022-12-06T05:53:30.866Z,5.29
2022-12-06T05:56:09.231Z,5.30
2022-12-06T05:58:41.293Z,5.29
2022-12-06T06:01:13.377Z,5.30
2022-12-06T06:03:47.734Z,5.34
2022-12-06T06:06:20.001Z,5.33
2022-12-06T06:08:52.735Z,5.35
2022-12-06T06:11:24.772Z,5.31
2022-12-06T06:13:56.795Z,5.31
2022-12-06T06:16:29.133Z,5.34
2022-12-06T06:19:01.809Z,5.32
2022-12-06T06:21:33.939Z,5.32
2022-12-06T06:24:06.567Z,5.35
2022-12-06T06:26:38.618Z,5.24
2022-12-06T06:29:10.530Z,5.23
2022-12-06T06:31:42.728Z,5.25
2022-12-06T06:34:15.374Z,5.29
2022-12-06T06:36:47.565Z,5.30
2022-12-06T06:39:19.762Z,5.29
2022-12-06T06:41:52.890Z,5.29
2022-12-06T06:44:24.875Z,5.30
2022-12-06T06:46:56.822Z,5.31
2022-12-06T06:49:28.745Z,5.28
2022-12-06T06:52:00.681Z,5.35
2022-12-06T06:54:32.680Z,5.29
2022-12-06T06:57:04.808Z,5.28
2022-12-06T06:59:36.720Z,5.29
2022-12-06T07:02:14.287Z,5.27
2022-12-06T07:04:46.340Z,5.20
2022-12-06T07:07:21.228Z,5.24
2022-12-06T07:09:53.437Z,5.23
2022-12-06T07:12:25.409Z,5.20
2022-12-06T07:14:57.409Z,5.24
2022-12-06T07:17:29.351Z,5.29
2022-12-06T07:20:01.598Z,5.33
2022-12-06T07:22:33.886Z,5.30
2022-12-06T07:25:06.344Z,5.34
2022-12-06T07:27:38.350Z,5.28
2022-12-06T07:30:15.777Z,5.29
2022-12-06T07:32:48.957Z,5.30
2022-12-06T07:35:21.561Z,5.34
2022-12-06T07:37:53.518Z,5.38
2022-12-06T07:40:48.412Z,5.40
2022-12-06T07:43:35.935Z,5.39
2022-12-06T07:46:12.329Z,5.39
2022-12-06T07:48:44.332Z,5.41
2022-12-06T07:51:16.326Z,5.40
2022-12-06T07:53:48.255Z,5.45
2022-12-06T07:56:20.180Z,5.49
2022-12-06T07:58:52.486Z,5.46
2022-12-06T08:01:24.668Z,5.47
2022-12-06T08:03:59.501Z,5.43
2022-12-06T08:06:33.109Z,5.45
2022-12-06T08:09:06.918Z,5.48
2022-12-06T08:11:38.933Z,5.50
2022-12-06T08:14:11.779Z,5.53
2022-12-06T08:16:43.746Z,5.53
2022-12-06T08:19:15.680Z,5.57
2022-12-06T08:21:48.539Z,5.55
2022-12-06T08:24:20.542Z,5.54
2022-12-06T08:26:53.251Z,5.59
2022-12-06T08:29:26.560Z,5.55
2022-12-06T08:31:58.849Z,5.57
2022-12-06T08:34:30.907Z,5.55
2022-12-06T08:37:03.728Z,5.52
2022-12-06T08:39:35.870Z,5.56
2022-12-06T08:42:08.204Z,5.63
2022-12-06T08:44:40.175Z,5.71
2022-12-06T08:47:12.251Z,5.73
2022-12-06T08:49:44.198Z,5.68
2022-12-06T08:52:16.577Z,5.68
2022-12-06T08:54:48.674Z,5.55
2022-12-06T08:57:20.731Z,5.61
2022-12-06T08:59:52.730Z,5.64
2022-12-06T09:02:24.698Z,5.72
2022-12-06T09:04:56.735Z,5.74
2022-12-06T09:07:28.738Z,5.80
2022-12-06T09:10:00.936Z,5.86
2022-12-06T09:12:33.101Z,5.91
2022-12-06T09:15:06.117Z,6.00
2022-12-06T09:17:38.041Z,5.97
2022-12-06T09:20:11.155Z,5.99
2022-12-06T09:22:43.541Z,5.94
2022-12-06T09:25:15.791Z,5.93
2022-12-06T09:27:48.279Z,5.93
2022-12-06T09:30:20.593Z,6.01
2022-12-06T09:32:53.420Z,6.11
2022-12-06T09:35:25.534Z,6.04
2022-12-06T09:37:59.207Z,6.14
2022-12-06T09:40:47.040Z,6.19
2022-12-06T09:43:45.359Z,6.21
2022-12-06T09:46:37.711Z,6.20
2022-12-06T09:49:29.850Z,6.17
2022-12-06T09:52:18.782Z,6.25
2022-12-06T09:55:11.613Z,6.34
2022-12-06T09:58:06.687Z,6.34
2022-12-06T10:00:51.791Z,6.41
2022-12-06T10:04:20.860Z,6.26
2022-12-06T10:07:11.284Z,6.30
2022-12-06T10:10:09.533Z,6.13
2022-12-06T10:12:56.660Z,6.16
2022-12-06T10:15:58.664Z,6.16
2022-12-06T10:18:39.586Z,6.23
2022-12-06T10:21:17.012Z,6.28
2022-12-06T10:24:01.916Z,6.33
2022-12-06T10:26:51.938Z,6.36
2022-12-06T10:29:36.006Z,6.44
2022-12-06T10:33:03.844Z,6.49
2022-12-06T10:35:53.450Z,6.50
2022-12-06T10:38:30.692Z,6.57
2022-12-06T10:41:15.724Z,6.58
2022-12-06T10:43:54.800Z,6.56
2022-12-06T10:47:06.318Z,6.62
2022-12-06T10:50:08.967Z,6.64
2022-12-06T10:53:04.815Z,6.54
2022-12-06T10:55:53.896Z,6.53
2022-12-06T10:58:43.459Z,6.55
2022-12-06T11:01:24.626Z,6.54
2022-12-06T11:04:16.973Z,6.52
2022-12-06T11:07:06.566Z,6.43
2022-12-06T11:09:49.722Z,6.32
2022-12-06T11:12:35.390Z,6.28
2022-12-06T11:15:17.834Z,6.21
2022-12-06T11:18:02.225Z,6.12
2022-12-06T11:20:44.327Z,6.15
2022-12-06T11:23:32.562Z,6.12
2022-12-06T11:26:40.487Z,6.10
2022-12-06T11:29:15.399Z,6.13
2022-12-06T11:32:04.369Z,6.15
2022-12-06T11:34:55.449Z,6.16
2022-12-06T11:37:32.000Z,6.18
2022-12-06T11:40:20.420Z,6.10
2022-12-06T11:42:53.486Z,6.12
2022-12-06T11:45:32.405Z,6.14
2022-12-06T11:48:17.712Z,6.11
2022-12-06T11:50:52.050Z,6.15
2022-12-06T11:53:27.724Z,6.09
2022-12-06T11:56:27.106Z,6.02
2022-12-06T11:59:17.214Z,5.98
2022-12-06T12:01:53.194Z,5.92
2022-12-06T12:04:42.009Z,5.91
2022-12-06T12:07:20.819Z,5.83
2022-12-06T12:09:55.790Z,5.87
2022-12-06T12:13:04.788Z,5.95
2022-12-06T12:15:37.493Z,6.03
2022-12-06T12:18:24.254Z,6.00
2022-12-06T12:20:58.255Z,5.95
2022-12-06T12:23:45.143Z,5.98
2022-12-06T12:26:21.017Z,5.94
2022-12-06T12:29:17.945Z,6.00
2022-12-06T12:31:59.622Z,6.06
2022-12-06T12:34:31.978Z,6.12
2022-12-06T12:37:09.195Z,6.13
2022-12-06T12:39:51.327Z,6.13
2022-12-06T12:42:33.239Z,6.18
2022-12-06T12:45:06.330Z,6.19
2022-12-06T12:47:38.306Z,6.20
2022-12-06T12:50:23.980Z,6.15
2022-12-06T12:52:56.504Z,6.18
2022-12-06T12:55:31.439Z,6.18
2022-12-06T12:58:09.439Z,6.00
2022-12-06T13:00:46.225Z,6.04
2022-12-06T13:03:51.839Z,6.11
2022-12-06T13:07:03.229Z,6.10
2022-12-06T13:10:05.456Z,6.09
2022-12-06T13:12:56.786Z,6.08
2022-12-06T13:15:39.653Z,6.07
2022-12-06T13:18:24.608Z,6.11
2022-12-06T13:21:03.958Z,6.13
2022-12-06T13:23:36.894Z,6.08
2022-12-06T13:26:32.678Z,6.14
2022-12-06T13:29:55.663Z,6.24
2022-12-06T13:32:42.011Z,6.30
2022-12-06T13:35:26.071Z,6.39
2022-12-06T13:38:26.090Z,6.45
2022-12-06T13:41:36.142Z,6.39
2022-12-06T13:44:42.139Z,6.37
2022-12-06T13:47:39.868Z,6.35
2022-12-06T13:50:18.203Z,6.28
2022-12-06T13:52:53.494Z,6.19
2022-12-06T13:55:25.604Z,6.03
2022-12-06T13:58:17.570Z,5.85
2022-12-06T14:00:50.983Z,5.79
2022-12-06T14:03:25.713Z,5.81
2022-12-06T14:06:15.806Z,5.86
2022-12-06T14:08:59.655Z,5.86
2022-12-06T14:11:38.195Z,5.87
2022-12-06T14:14:24.308Z,5.89
2022-12-06T14:17:26.735Z,5.89
2022-12-06T14:20:23.251Z,5.93
2022-12-06T14:22:55.370Z,6.00
2022-12-06T14:25:31.532Z,6.03
2022-12-06T14:28:13.086Z,6.02
2022-12-06T14:30:46.302Z,5.99
2022-12-06T14:33:22.485Z,5.97
2022-12-06T14:35:55.491Z,5.99
2022-12-06T14:38:30.978Z,5.98
2022-12-06T14:41:21.364Z,5.98
2022-12-06T14:43:53.186Z,5.90
2022-12-06T14:46:27.379Z,5.84
2022-12-06T14:49:17.779Z,5.76
2022-12-06T14:51:52.840Z,5.59
2022-12-06T14:54:27.688Z,5.48
2022-12-06T14:57:00.960Z,5.40
2022-12-06T15:00:11.391Z,5.33
2022-12-06T15:02:29.031Z,5.26
2022-12-06T15:05:00.988Z,5.17
2022-12-06T15:07:42.633Z,5.14
2022-12-06T15:10:32.341Z,5.08
2022-12-06T15:13:15.919Z,5.01
2022-12-06T15:15:48.357Z,4.97
2022-12-06T15:18:25.847Z,4.96
2022-12-06T15:20:57.762Z,4.98
2022-12-06T15:23:36.256Z,5.05
2022-12-06T15:26:12.809Z,5.08
2022-12-06T15:28:45.211Z,5.05
2022-12-06T15:31:22.559Z,4.97
2022-12-06T15:33:55.821Z,4.91
2022-12-06T15:36:33.333Z,4.87
2022-12-06T15:39:05.355Z,4.80
2022-12-06T15:41:38.477Z,4.74
2022-12-06T15:44:17.439Z,4.69
2022-12-06T15:46:50.261Z,4.64
2022-12-06T15:49:28.565Z,4.60
2022-12-06T15:52:00.614Z,4.55
2022-12-06T15:54:32.993Z,4.50
2022-12-06T15:57:04.911Z,4.45
2022-12-06T15:59:37.069Z,4.43
2022-12-06T16:02:17.973Z,4.42
2022-12-06T16:04:51.961Z,4.40
2022-12-06T16:07:27.227Z,4.39
2022-12-06T16:09:59.211Z,4.33
2022-12-06T16:12:51.408Z,4.29
2022-12-06T16:15:23.372Z,4.31
2022-12-06T16:17:55.346Z,4.30
2022-12-06T16:20:33.291Z,4.25
2022-12-06T16:24:04.681Z,4.23
2022-12-06T16:26:37.434Z,4.20
2022-12-06T16:29:13.692Z,4.15
2022-12-06T16:31:45.905Z,4.11
2022-12-06T16:34:18.443Z,4.10
2022-12-06T16:37:06.674Z,4.12
2022-12-06T16:39:38.740Z,4.07
2022-12-06T16:42:10.704Z,4.03
2022-12-06T16:44:57.550Z,3.98
2022-12-06T16:50:00.807Z,3.97
2022-12-06T16:52:32.814Z,3.96
2022-12-06T16:55:05.242Z,3.95
2022-12-06T16:57:37.284Z,3.93
2022-12-06T17:00:12.683Z,3.92
2022-12-06T17:02:44.853Z,3.91
2022-12-06T17:05:26.778Z,3.87
2022-12-06T17:07:59.011Z,3.85
2022-12-06T17:10:31.108Z,3.85
2022-12-06T17:13:03.505Z,3.85
2022-12-06T17:15:35.524Z,3.83
2022-12-06T17:18:07.572Z,3.80
2022-12-06T17:20:40.120Z,3.75
2022-12-06T17:23:12.173Z,3.75
2022-12-06T17:25:44.185Z,3.72
2022-12-06T17:28:16.154Z,3.66
2022-12-06T17:30:51.257Z,3.64
2022-12-06T17:33:23.422Z,3.60
2022-12-06T17:35:55.615Z,3.59
2022-12-06T17:38:29.920Z,3.59
2022-12-06T17:41:22.445Z,3.54
2022-12-06T17:43:54.433Z,3.50
2022-12-06T17:46:27.156Z,3.55
2022-12-06T17:48:59.713Z,3.52
2022-12-06T17:51:32.371Z,3.49
2022-12-06T17:54:09.023Z,3.53
2022-12-06T17:56:44.699Z,3.49
2022-12-06T17:59:23.659Z,3.50
2022-12-06T18:02:15.047Z,3.46
2022-12-06T18:04:47.978Z,3.47
2022-12-06T18:07:20.420Z,3.52
2022-12-06T18:09:53.291Z,3.54
2022-12-06T18:12:25.905Z,3.57
2022-12-06T18:14:59.566Z,3.60
2022-12-06T18:17:31.731Z,3.55
2022-12-06T18:20:04.276Z,3.47
2022-12-06T18:22:36.256Z,3.48
2022-12-06T18:25:09.181Z,3.47
2022-12-06T18:27:41.130Z,3.44
2022-12-06T18:30:13.270Z,3.50
2022-12-06T18:32:45.254Z,3.47
2022-12-06T18:35:17.178Z,3.50
2022-12-06T18:37:49.164Z,3.52
2022-12-06T18:40:21.146Z,3.55
2022-12-06T18:42:53.070Z,3.58
2022-12-06T18:45:26.003Z,3.47
2022-12-06T18:47:57.967Z,3.49
2022-12-06T18:50:29.999Z,3.59
2022-12-06T18:53:02.012Z,3.57
2022-12-06T18:55:34.091Z,3.59
2022-12-06T18:58:06.022Z,3.50
2022-12-06T19:00:40.922Z,3.49
2022-12-06T19:03:13.819Z,3.52
2022-12-06T19:06:02.601Z,3.51
2022-12-06T19:08:35.097Z,3.55
2022-12-06T19:11:07.720Z,3.65
2022-12-06T19:13:39.717Z,3.70
2022-12-06T19:16:12.209Z,3.72
2022-12-06T19:18:44.462Z,3.72
2022-12-06T19:21:17.678Z,3.73
2022-12-06T19:23:52.903Z,3.84
2022-12-06T19:26:26.955Z,3.78
2022-12-06T19:28:59.010Z,3.87
2022-12-06T19:31:31.069Z,3.89
2022-12-06T19:34:03.055Z,3.85
2022-12-06T19:36:34.999Z,3.91
2022-12-06T19:39:07.118Z,3.98
2022-12-06T19:41:59.078Z,4.06
2022-12-06T19:44:31.271Z,4.10
2022-12-06T19:47:03.491Z,4.04
2022-12-06T19:49:35.496Z,4.01
2022-12-06T19:52:07.592Z,3.99
2022-12-06T19:54:40.298Z,4.04
2022-12-06T19:57:12.364Z,4.04
2022-12-06T19:59:44.474Z,4.00
2022-12-06T20:02:16.580Z,4.09
2022-12-06T20:04:48.816Z,4.18
2022-12-06T20:07:20.832Z,4.14
2022-12-06T20:09:52.790Z,4.12
2022-12-06T20:12:24.823Z,4.10
2022-12-06T20:14:56.846Z,4.09
2022-12-06T20:17:28.937Z,4.13
2022-12-06T20:20:02.174Z,4.09
2022-12-06T20:22:34.412Z,4.13
2022-12-06T20:25:06.828Z,4.14
2022-12-06T20:27:54.527Z,4.11
2022-12-06T20:30:27.830Z,4.17
2022-12-06T20:33:00.126Z,4.11
2022-12-06T20:35:32.099Z,4.20
2022-12-06T20:38:04.195Z,4.19
2022-12-06T20:40:36.211Z,4.19
2022-12-06T20:43:08.425Z,4.17
2022-12-06T20:45:40.401Z,4.18
2022-12-06T20:48:12.435Z,4.15
2022-12-06T20:50:44.361Z,4.17
2022-12-06T20:53:16.858Z,4.23
2022-12-06T20:55:48.828Z,4.25
2022-12-06T20:58:20.958Z,4.22
2022-12-06T21:00:52.892Z,4.17
2022-12-06T21:03:25.368Z,4.20
2022-12-06T21:06:05.923Z,4.30
2022-12-06T21:08:38.496Z,4.35
2022-12-06T21:11:26.201Z,4.35
2022-12-06T21:13:58.620Z,4.49
2022-12-06T21:16:33.086Z,4.49
2022-12-06T21:19:14.222Z,4.57
2022-12-06T21:21:53.965Z,4.74
2022-12-06T21:24:25.904Z,4.71
2022-12-06T21:26:57.841Z,4.76
2022-12-06T21:29:31.139Z,4.80
2022-12-06T21:32:03.203Z,4.88
2022-12-06T21:34:35.323Z,4.88
2022-12-06T21:37:09.092Z,4.87
2022-12-06T21:39:41.134Z,4.84
2022-12-06T21:42:17.543Z,4.91
2022-12-06T21:44:49.479Z,4.89
2022-12-06T21:47:21.527Z,4.87
2022-12-06T21:49:53.511Z,4.83
2022-12-06T21:52:26.363Z,4.75
2022-12-06T21:54:58.371Z,4.78
2022-12-06T21:57:34.108Z,4.70
2022-12-06T22:00:07.507Z,4.62
2022-12-06T22:02:39.663Z,4.68
2022-12-06T22:05:12.110Z,4.77
2022-12-06T22:07:44.112Z,4.73
2022-12-06T22:10:16.266Z,4.77
2022-12-06T22:12:48.366Z,4.82
2022-12-06T22:15:20.513Z,4.82
2022-12-06T22:17:52.474Z,4.84
2022-12-06T22:20:24.519Z,4.78
2022-12-06T22:22:56.516Z,4.85
2022-12-06T22:25:28.684Z,4.87
2022-12-06T22:28:00.615Z,4.90
2022-12-06T22:30:32.593Z,4.93
2022-12-06T22:33:04.594Z,4.99
2022-12-06T22:35:36.688Z,5.01
2022-12-06T22:38:08.802Z,5.10
2022-12-06T22:40:40.748Z,5.15
2022-12-06T22:43:12.700Z,5.15
2022-12-06T22:45:44.680Z,5.19
2022-12-06T22:48:16.629Z,5.28
2022-12-06T22:50:48.580Z,5.35
2022-12-06T22:53:20.496Z,5.34
2022-12-06T22:55:52.552Z,5.26
2022-12-06T22:58:24.465Z,5.36
2022-12-06T23:00:56.549Z,5.38
2022-12-06T23:03:29.285Z,5.43
2022-12-06T23:06:01.279Z,5.44
2022-12-06T23:08:33.865Z,5.52
2022-12-06T23:11:09.471Z,5.56
2022-12-06T23:13:41.724Z,5.56
2022-12-06T23:16:20.610Z,5.56
2022-12-06T23:18:53.114Z,5.53
2022-12-06T23:21:31.453Z,5.57
2022-12-06T23:24:10.805Z,5.51
2022-12-06T23:26:54.519Z,5.62
2022-12-06T23:29:29.587Z,5.61
2022-12-06T23:32:01.712Z,5.60
2022-12-06T23:34:34.380Z,5.59
2022-12-06T23:37:06.763Z,5.58
2022-12-06T23:39:38.759Z,5.48
2022-12-06T23:42:10.702Z,5.53
2022-12-06T23:44:42.612Z,5.52
2022-12-06T23:47:14.554Z,5.43
2022-12-06T23:49:46.498Z,5.33
2022-12-06T23:52:18.472Z,5.35
2022-12-06T23:54:50.385Z,5.27
2022-12-06T23:57:22.394Z,5.22
2022-12-06T23:59:54.313Z,5.23
